createdAt,value
2022-09-03T00:00:01.493Z,93563.05
2022-09-03T00:05:15.338Z,93566.00
2022-09-03T00:10:32.334Z,93559.83
2022-09-03T00:15:41.983Z,93558.83
2022-09-03T00:20:55.822Z,93551.82
2022-09-03T00:26:19.245Z,93548.70
2022-09-03T00:31:30.536Z,93534.98
2022-09-03T00:36:46.511Z,93532.27
2022-09-03T00:42:12.263Z,93530.29
2022-09-03T00:47:38.218Z,93532.72
2022-09-03T00:53:07.279Z,93524.53
2022-09-03T00:58:49.624Z,93531.81
2022-09-03T01:04:21.944Z,93532.14
2022-09-03T01:09:58.610Z,93529.70
2022-09-03T01:15:12.399Z,93529.01
2022-09-03T01:21:02.359Z,93532.52
2022-09-03T01:26:25.384Z,93535.20
2022-09-03T01:31:48.482Z,93529.75
2022-09-03T01:37:08.315Z,93527.92
2022-09-03T01:42:28.384Z,93532.10
2022-09-03T01:48:18.377Z,93544.91
2022-09-03T01:53:50.301Z,93549.97
2022-09-03T01:59:26.101Z,93531.83
2022-09-03T02:04:32.940Z,93530.41
2022-09-03T02:09:39.694Z,93536.07
2022-09-03T02:14:46.586Z,93541.94
2022-09-03T02:19:53.345Z,93542.73
2022-09-03T02:25:00.025Z,93545.52
2022-09-03T02:30:07.997Z,93552.66
2022-09-03T02:35:14.941Z,93550.05
2022-09-03T02:40:21.671Z,93549.81
2022-09-03T02:45:31.847Z,93559.89
2022-09-03T02:50:44.431Z,93565.78
2022-09-03T02:55:51.259Z,93555.97
2022-09-03T03:00:58.095Z,93553.01
2022-09-03T03:06:07.882Z,93565.23
2022-09-03T03:11:16.840Z,93559.82
2022-09-03T03:16:24.079Z,93553.73
2022-09-03T03:21:31.690Z,93554.35
2022-09-03T03:26:38.596Z,93559.36
2022-09-03T03:31:46.230Z,93558.59
2022-09-03T03:36:53.319Z,93551.46
2022-09-03T03:42:00.430Z,93549.22
2022-09-03T03:47:07.782Z,93554.53
2022-09-03T03:52:14.597Z,93553.20
2022-09-03T03:57:23.980Z,93558.83
2022-09-03T04:02:30.890Z,93547.27
2022-09-03T04:07:37.882Z,93547.45
2022-09-03T04:12:44.851Z,93552.59
2022-09-03T04:17:53.006Z,93544.28
2022-09-03T04:23:04.435Z,93535.21
2022-09-03T04:28:11.206Z,93541.73
2022-09-03T04:33:17.890Z,93542.19
2022-09-03T04:38:24.824Z,93537.81
2022-09-03T04:43:32.678Z,93529.89
2022-09-03T04:48:40.707Z,93536.07
2022-09-03T04:53:51.461Z,93543.20
2022-09-03T04:59:02.340Z,93540.62
2022-09-03T05:04:10.425Z,93544.73
2022-09-03T05:09:17.176Z,93542.48
2022-09-03T05:14:23.876Z,93550.46
2022-09-03T05:19:30.618Z,93545.35
2022-09-03T05:24:37.370Z,93554.59
2022-09-03T05:29:47.145Z,93546.60
2022-09-03T05:34:53.895Z,93555.97
2022-09-03T05:40:00.698Z,93557.09
2022-09-03T05:45:11.337Z,93557.02
2022-09-03T05:50:18.212Z,93551.39
2022-09-03T05:55:24.957Z,93553.22
2022-09-03T06:00:31.698Z,93555.80
2022-09-03T06:05:38.434Z,93553.30
2022-09-03T06:10:45.183Z,93558.23
2022-09-03T06:15:51.881Z,93565.25
2022-09-03T06:21:03.833Z,93562.94
2022-09-03T06:26:14.064Z,93566.73
2022-09-03T06:31:22.283Z,93567.58
2022-09-03T06:36:29.152Z,93557.80
2022-09-03T06:41:35.952Z,93554.74
2022-09-03T06:46:44.116Z,93562.93
2022-09-03T06:51:50.842Z,93561.75
2022-09-03T06:56:58.886Z,93552.87
2022-09-03T07:02:07.740Z,93553.11
2022-09-03T07:07:16.205Z,93545.11
2022-09-03T07:12:22.948Z,93553.50
2022-09-03T07:17:29.676Z,93558.44
2022-09-03T07:22:36.529Z,93566.44
2022-09-03T07:27:43.377Z,93562.45
2022-09-03T07:32:51.652Z,93575.09
2022-09-03T07:37:58.476Z,93561.59
2022-09-03T07:43:05.363Z,93555.98
2022-09-03T07:48:12.155Z,93554.38
2022-09-03T07:53:21.273Z,93566.87
2022-09-03T07:58:33.832Z,93559.27
2022-09-03T08:03:45.914Z,93559.16
2022-09-03T08:09:05.097Z,93560.34
2022-09-03T08:14:13.399Z,93560.13
2022-09-03T08:19:20.949Z,93557.15
2022-09-03T08:24:27.703Z,93554.72
2022-09-03T08:29:34.444Z,93552.84
2022-09-03T08:34:41.527Z,93550.36
2022-09-03T08:39:48.329Z,93555.37
2022-09-03T08:45:02.918Z,93548.74
2022-09-03T08:50:32.604Z,93553.22
2022-09-03T08:55:51.301Z,93547.41
2022-09-03T09:01:17.398Z,93543.88
2022-09-03T09:06:34.493Z,93543.83
2022-09-03T09:11:48.223Z,93550.16
2022-09-03T09:17:18.855Z,93546.53
2022-09-03T09:22:35.914Z,93553.28
2022-09-03T09:27:51.168Z,93551.61
2022-09-03T09:32:57.895Z,93544.41
2022-09-03T09:38:04.634Z,93548.47
2022-09-03T09:43:22.308Z,93551.77
2022-09-03T09:48:34.644Z,93549.02
2022-09-03T09:53:42.985Z,93549.67
2022-09-03T09:58:49.771Z,93550.34
2022-09-03T10:04:02.342Z,93551.17
2022-09-03T10:09:16.245Z,93559.47
2022-09-03T10:14:35.636Z,93554.52
2022-09-03T10:20:28.403Z,93563.27
2022-09-03T10:26:00.309Z,93556.94
2022-09-03T10:31:50.605Z,93565.02
2022-09-03T10:37:51.183Z,93574.44
2022-09-03T10:43:21.499Z,93570.08
2022-09-03T10:49:11.497Z,93567.61
2022-09-03T10:54:52.518Z,93550.86
2022-09-03T11:00:14.842Z,93554.06
2022-09-03T11:05:36.577Z,93557.53
2022-09-03T11:10:56.078Z,93556.97
2022-09-03T11:16:07.705Z,93564.33
2022-09-03T11:21:17.981Z,93546.80
2022-09-03T11:26:28.219Z,93544.40
2022-09-03T11:31:58.522Z,93543.53
2022-09-03T11:37:20.222Z,93547.34
2022-09-03T11:42:37.462Z,93546.16
2022-09-03T11:47:47.061Z,93545.68
2022-09-03T11:52:57.281Z,93550.09
2022-09-03T11:58:21.632Z,93541.72
2022-09-03T12:03:40.986Z,93544.16
2022-09-03T12:09:02.891Z,93555.70
2022-09-03T12:14:35.042Z,93550.41
2022-09-03T12:19:49.028Z,93550.73
2022-09-03T12:24:55.844Z,93549.12
2022-09-03T12:30:06.618Z,93539.73
2022-09-03T12:40:32.920Z,93544.39
2022-09-03T12:56:14.430Z,93535.73
2022-09-03T13:01:31.605Z,93521.73
2022-09-03T13:06:51.768Z,93513.31
2022-09-03T13:11:59.537Z,93509.41
2022-09-03T13:17:26.999Z,93511.98
2022-09-03T13:22:49.899Z,93514.08
2022-09-03T13:28:06.947Z,93505.48
2022-09-03T13:33:32.912Z,93496.05
2022-09-03T13:38:46.892Z,93492.45
2022-09-03T13:44:08.243Z,93499.87
2022-09-03T13:49:54.967Z,93502.89
2022-09-03T13:55:12.547Z,93500.84
2022-09-03T14:00:35.067Z,93498.42
2022-09-03T14:05:57.819Z,93488.53
2022-09-03T14:11:29.552Z,93491.83
2022-09-03T14:17:23.801Z,93499.64
2022-09-03T14:23:01.897Z,93481.00
2022-09-03T14:34:14.538Z,93494.40
2022-09-03T14:39:37.685Z,93488.12
2022-09-03T14:45:13.486Z,93495.27
2022-09-03T14:50:51.676Z,93486.91
2022-09-03T14:56:40.689Z,93486.25
2022-09-03T15:01:51.968Z,93487.84
2022-09-03T15:07:28.749Z,93487.92
2022-09-03T15:12:40.411Z,93484.71
2022-09-03T15:17:58.743Z,93478.70
2022-09-03T15:23:37.893Z,93481.94
2022-09-03T15:29:12.770Z,93487.20
2022-09-03T15:34:38.998Z,93486.95
2022-09-03T15:39:48.008Z,93490.19
2022-09-03T15:44:58.697Z,93498.01
2022-09-03T15:50:13.088Z,93497.16
2022-09-03T15:55:39.488Z,93511.34
2022-09-03T16:00:58.083Z,93503.70
2022-09-03T16:06:12.808Z,93498.98
2022-09-03T16:11:29.704Z,93500.13
2022-09-03T16:16:53.240Z,93495.30
2022-09-03T16:22:31.219Z,93495.41
2022-09-03T16:27:45.942Z,93500.47
2022-09-03T16:33:08.836Z,93509.34
2022-09-03T16:38:38.039Z,93513.66
2022-09-03T16:43:49.238Z,93513.21
2022-09-03T16:49:18.160Z,93508.54
2022-09-03T16:54:41.377Z,93522.13
2022-09-03T16:59:58.079Z,93519.27
2022-09-03T17:05:23.946Z,93521.85
2022-09-03T17:11:06.377Z,93525.09
2022-09-03T17:16:40.155Z,93525.27
2022-09-03T17:22:10.358Z,93525.50
2022-09-03T17:27:39.712Z,93529.86
2022-09-03T17:33:26.854Z,93535.03
2022-09-03T17:39:12.255Z,93538.16
2022-09-03T17:44:41.073Z,93535.13
2022-09-03T17:50:16.216Z,93542.79
2022-09-03T17:55:42.426Z,93545.67
2022-09-03T18:01:08.413Z,93546.47
2022-09-03T18:06:31.378Z,93547.30
2022-09-03T18:11:52.990Z,93554.46
2022-09-03T18:17:13.154Z,93559.70
2022-09-03T18:22:38.232Z,93558.77
2022-09-03T18:28:06.443Z,93561.88
2022-09-03T18:33:30.906Z,93566.27
2022-09-03T18:38:57.880Z,93566.11
2022-09-03T18:45:11.991Z,93561.32
2022-09-03T18:50:29.332Z,93572.86
2022-09-03T18:56:17.089Z,93580.55
2022-09-03T19:02:01.254Z,93580.16
2022-09-03T19:07:35.643Z,93594.22
2022-09-03T19:13:28.621Z,93604.96
2022-09-03T19:19:29.961Z,93593.11
2022-09-03T19:24:54.413Z,93603.31
2022-09-03T19:30:37.385Z,93607.63
2022-09-03T19:36:20.908Z,93608.45
2022-09-03T19:41:58.056Z,93600.80
2022-09-03T19:47:24.455Z,93611.74
2022-09-03T19:53:07.932Z,93611.94
2022-09-03T19:58:44.220Z,93617.27
2022-09-03T20:04:03.200Z,93621.08
2022-09-03T20:09:32.398Z,93606.24
2022-09-03T20:14:39.450Z,93618.70
2022-09-03T20:20:13.455Z,93627.70
2022-09-03T20:25:39.167Z,93626.43
2022-09-03T20:31:16.032Z,93628.33
2022-09-03T20:37:10.179Z,93633.86
2022-09-03T20:42:49.394Z,93638.34
2022-09-03T20:48:28.990Z,93635.65
2022-09-03T20:54:00.771Z,93637.09
2022-09-03T20:59:39.312Z,93640.98
2022-09-03T21:05:02.226Z,93642.30
2022-09-03T21:10:35.801Z,93635.88
2022-09-03T21:16:17.291Z,93638.36
2022-09-03T21:21:50.915Z,93644.34
2022-09-03T21:27:04.975Z,93648.64
2022-09-03T21:32:21.672Z,93648.00
2022-09-03T21:37:28.498Z,93649.75
2022-09-03T21:42:50.911Z,93651.06
2022-09-03T21:48:21.644Z,93662.48
2022-09-03T21:53:47.537Z,93659.80
2022-09-03T21:59:09.367Z,93659.25
2022-09-03T22:04:15.988Z,93663.29
2022-09-03T22:09:59.865Z,93661.63
2022-09-03T22:15:11.076Z,93658.01
2022-09-03T22:20:19.303Z,93655.30
2022-09-03T22:25:48.347Z,93646.63
2022-09-03T22:31:17.247Z,93660.79
2022-09-03T22:36:40.462Z,93673.22
2022-09-03T22:42:09.956Z,93674.72
2022-09-03T22:47:40.394Z,93693.67
2022-09-03T22:53:20.813Z,93699.98
2022-09-03T22:58:34.849Z,93683.25
2022-09-03T23:03:48.918Z,93677.05
2022-09-03T23:09:05.678Z,93684.66
2022-09-03T23:14:25.862Z,93673.20
2022-09-03T23:19:46.642Z,93673.06
2022-09-03T23:25:13.418Z,93674.72
2022-09-03T23:30:20.493Z,93659.59
2022-09-03T23:35:31.477Z,93660.80
2022-09-03T23:40:53.839Z,93670.25
2022-09-03T23:46:20.167Z,93659.50
2022-09-03T23:52:10.535Z,93653.77
2022-09-03T23:57:42.347Z,93648.59
